Time;durP1;ratioP1;P1;durP2;ratioP2;P2;SDS_P1;SDS_P2;PMS_P1;PMS_P2;Temp;Humidity;BMP_temperature;BMP_pressure;BME280_temperature;BME280_humidity;BME280_pressure;Samples;Min_cycle;Max_cycle;Signal;HPM_P1;HPM_P2
2023/10/21 00:01:51;;;;;;;16.60;4.85;;;;;;;16.46;42.33;93454.50;4931099;28;20153;-79
2023/10/21 00:04:52;;;;;;;10.07;4.95;;;;;;;16.70;42.04;93470.25;4941205;28;20126;-78
2023/10/21 00:07:50;;;;;;;7.22;4.38;;;;;;;16.37;42.41;93496.91;4930310;28;20051;-79
2023/10/21 00:10:37;;;;;;;12.85;6.20;;;;;;;16.66;42.39;93474.78;4955070;28;20683;-80
2023/10/21 00:13:59;;;;;;;10.63;5.35;;;;;;;16.36;42.92;93450.50;4906029;28;20277;-78
2023/10/21 00:17:20;;;;;;;11.55;4.90;;;;;;;16.47;42.33;93461.44;4923861;28;20057;-79
2023/10/21 00:20:54;;;;;;;12.32;5.65;;;;;;;16.75;42.79;93473.41;4940817;28;20035;-78
2023/10/21 00:24:12;;;;;;;13.18;6.10;;;;;;;16.74;42.14;93482.59;4938257;28;20927;-81
2023/10/21 00:27:22;;;;;;;9.52;4.40;;;;;;;16.74;42.11;93482.59;4913983;28;20055;-79
2023/10/21 00:30:38;;;;;;;8.30;5.15;;;;;;;16.55;42.09;93437.03;4911054;28;20241;-79
2023/10/21 00:33:33;;;;;;;8.90;4.90;;;;;;;16.23;42.27;93419.59;4942157;28;20462;-81
2023/10/21 00:36:32;;;;;;;16.95;6.07;;;;;;;16.29;42.67;93424.28;4939469;28;20043;-81
2023/10/21 00:39:51;;;;;;;11.52;4.88;;;;;;;16.61;42.32;93478.53;4925800;28;20385;-80
2023/10/21 00:42:46;;;;;;;15.38;5.43;;;;;;;16.30;43.27;93468.81;4941105;28;20093;-79
2023/10/21 00:45:43;;;;;;;10.30;5.18;;;;;;;16.33;43.41;93514.84;4939149;28;20053;-80
2023/10/21 00:48:29;;;;;;;12.88;4.68;;;;;;;16.29;43.26;93504.00;4939389;28;20051;-79
2023/10/21 00:51:41;;;;;;;10.15;4.22;;;;;;;16.41;43.02;93495.84;4931402;28;20047;-80
2023/10/21 00:54:50;;;;;;;10.27;4.72;;;;;;;15.99;43.14;93458.22;4940678;28;20494;-78
2023/10/21 00:57:39;;;;;;;8.90;4.80;;;;;;;15.69;43.96;93492.13;4925092;28;20054;-80
2023/10/21 01:00:39;;;;;;;15.60;6.90;;;;;;;15.58;43.90;93496.50;4940211;28;20509;-81
2023/10/21 01:03:35;;;;;;;11.90;5.15;;;;;;;15.78;43.86;93503.44;4922063;28;20047;-81
2023/10/21 01:06:37;;;;;;;9.88;5.10;;;;;;;16.11;43.47;93533.19;4925852;28;20043;-80
2023/10/21 01:09:40;;;;;;;12.70;5.65;;;;;;;15.95;43.39;93527.13;4923729;28;20506;-81
2023/10/21 01:12:42;;;;;;;12.40;4.93;;;;;;;15.94;43.77;93514.84;4912950;28;20165;-81
2023/10/21 01:15:40;;;;;;;12.88;5.18;;;;;;;15.36;44.00;93433.59;4964902;28;20512;-80
2023/10/21 01:18:33;;;;;;;15.77;5.75;;;;;;;16.05;44.08;93537.28;4973823;28;20045;-78
2023/10/21 01:21:31;;;;;;;;;;;;;;;15.88;44.03;93524.31;4959443;28;20075;-80
2023/10/21 01:24:27;;;;;;;10.60;4.35;;;;;;;15.63;44.66;93517.66;4963254;28;19924;-80
2023/10/21 01:27:20;;;;;;;10.43;5.32;;;;;;;15.23;45.96;93513.31;4936839;28;20046;-78
2023/10/21 01:30:32;;;;;;;10.07;4.35;;;;;;;15.22;45.70;93505.63;4971011;28;20126;-80
2023/10/21 01:33:27;;;;;;;18.48;4.13;;;;;;;15.48;45.54;93515.81;4959699;28;20048;-77
2023/10/21 01:36:05;;;;;;;8.93;3.13;;;;;;;15.41;44.75;93532.47;4963090;28;20047;-80
2023/10/21 01:39:10;;;;;;;20.70;4.78;;;;;;;15.08;45.58;93500.75;4957081;28;20081;-80
2023/10/21 01:41:54;;;;;;;14.25;4.18;;;;;;;15.22;44.84;93529.75;4954965;28;20092;-79
2023/10/21 01:44:40;;;;;;;10.95;3.63;;;;;;;14.73;44.39;93376.78;4972392;28;20042;-81
2023/10/21 01:47:43;;;;;;;10.00;3.40;;;;;;;15.36;43.82;93517.44;4969014;28;20038;-80
2023/10/21 01:50:31;;;;;;;8.40;3.00;;;;;;;15.38;44.06;93472.31;4964717;28;20041;-79
2023/10/21 01:53:41;;;;;;;8.18;2.75;;;;;;;15.03;45.07;93499.09;4948386;28;20038;-77
2023/10/21 01:56:52;;;;;;;9.77;3.00;;;;;;;15.30;45.07;93516.16;4889933;28;20521;-77
2023/10/21 01:59:41;;;;;;;9.07;4.05;;;;;;;15.43;44.20;93514.94;4945787;28;20050;-78
2023/10/21 02:02:59;;;;;;;13.52;3.80;;;;;;;15.40;44.26;93526.31;4954118;28;20038;-78
2023/10/21 02:05:33;;;;;;;9.35;4.30;;;;;;;14.42;44.63;93382.94;4943024;28;20656;-78
2023/10/21 02:08:19;;;;;;;9.75;4.15;;;;;;;15.51;45.12;93523.91;4949385;28;20046;-79
2023/10/21 02:11:29;;;;;;;6.97;3.38;;;;;;;14.68;46.65;93516.22;4940379;28;20096;-78
2023/10/21 02:14:25;;;;;;;14.75;3.08;;;;;;;14.95;45.59;93528.75;4946540;28;20027;-78
2023/10/21 02:17:18;;;;;;;7.93;2.90;;;;;;;14.55;45.36;93428.00;4939920;28;20651;-80
2023/10/21 02:20:17;;;;;;;10.52;3.65;;;;;;;15.30;44.96;93518.06;4946757;28;20046;-80
2023/10/21 02:23:23;;;;;;;8.57;3.63;;;;;;;15.34;44.75;93524.28;4953851;28;20421;-80
2023/10/21 02:26:41;;;;;;;13.65;4.32;;;;;;;15.54;44.29;93501.78;4957200;28;20065;-79
2023/10/21 02:29:34;;;;;;;15.02;4.90;;;;;;;15.34;43.62;93466.13;4937728;28;20050;-79
2023/10/21 02:32:31;;;;;;;12.27;2.92;;;;;;;15.36;43.33;93468.44;4919608;28;20054;-79
2023/10/21 02:35:31;;;;;;;10.85;2.78;;;;;;;15.54;43.60;93490.28;4955670;28;20505;-80
2023/10/21 02:38:35;;;;;;;7.25;3.10;;;;;;;15.50;43.30;93500.16;4954003;28;20218;-80
2023/10/21 02:41:41;;;;;;;9.48;3.28;;;;;;;15.24;43.12;93466.66;4943686;28;20117;-79
2023/10/21 02:44:38;;;;;;;7.53;2.97;;;;;;;15.56;44.63;93541.63;4945905;28;20430;-78
2023/10/21 02:47:55;;;;;;;11.82;3.88;;;;;;;15.36;43.59;93538.88;4946640;28;20070;-79
2023/10/21 02:51:09;;;;;;;10.05;3.08;;;;;;;15.24;45.06;93519.47;4948611;28;20050;-79
2023/10/21 02:54:16;;;;;;;16.63;5.03;;;;;;;14.49;44.39;93426.69;4951611;28;20036;-79
2023/10/21 02:57:30;;;;;;;7.05;3.08;;;;;;;15.19;44.23;93544.63;4940382;28;20054;-78
2023/10/21 03:00:29;;;;;;;12.65;3.47;;;;;;;15.32;44.02;93538.03;4944797;28;20085;-79
2023/10/21 03:03:16;;;;;;;6.00;2.95;;;;;;;15.25;44.67;93543.25;4944770;28;20042;-78
2023/10/21 03:06:40;;;;;;;13.75;3.42;;;;;;;15.10;44.32;93536.00;4950837;28;20537;-76
2023/10/21 03:09:44;;;;;;;11.50;3.95;;;;;;;15.28;44.59;93573.91;4943338;28;20042;-78
2023/10/21 03:12:48;;;;;;;13.55;3.80;;;;;;;15.34;44.92;93538.47;4949552;28;20501;-79
2023/10/21 03:15:44;;;;;;;12.55;3.47;;;;;;;15.45;44.51;93568.19;4953572;28;20046;-79
2023/10/21 03:19:01;;;;;;;12.02;3.97;;;;;;;15.05;45.33;93576.44;4951954;28;20046;-79
2023/10/21 03:21:52;;;;;;;9.10;2.88;;;;;;;14.56;45.85;93475.06;4937470;28;20042;-80
2023/10/21 03:25:06;;;;;;;9.52;4.00;;;;;;;14.70;44.94;93482.66;4952916;28;20042;-79
2023/10/21 03:27:58;;;;;;;6.78;2.85;;;;;;;15.27;45.03;93550.91;4959509;28;20046;-80
2023/10/21 03:31:25;;;;;;;13.88;5.07;;;;;;;15.08;45.45;93530.19;4958776;28;20294;-79
2023/10/21 03:34:55;;;;;;;12.90;4.38;;;;;;;14.90;46.19;93553.91;4943309;28;20042;-79
2023/10/21 03:37:42;;;;;;;17.92;5.00;;;;;;;14.99;46.05;93534.97;4923705;28;20038;-81
2023/10/21 03:40:48;;;;;;;13.52;4.57;;;;;;;14.51;46.08;93472.63;4937679;28;20505;-79
2023/10/21 03:43:34;;;;;;;14.10;4.88;;;;;;;14.22;45.35;93408.84;4927789;28;20743;-80
2023/10/21 03:46:32;;;;;;;15.95;4.50;;;;;;;15.36;45.26;93559.53;4926666;28;20527;-79
2023/10/21 03:49:34;;;;;;;12.82;4.90;;;;;;;15.43;45.04;93557.81;4955666;28;20042;-79
2023/10/21 03:52:29;;;;;;;9.48;4.88;;;;;;;15.39;44.65;93521.34;4956485;28;20047;-79
2023/10/21 03:55:55;;;;;;;10.48;3.28;;;;;;;14.98;43.85;93445.81;4947320;28;20051;-78
2023/10/21 03:58:55;;;;;;;10.73;4.93;;;;;;;15.68;43.72;93538.84;4942024;28;20046;-78
2023/10/21 04:01:59;;;;;;;;;;;;;;;15.44;44.88;93551.34;4934300;28;20124;-81
2023/10/21 04:04:51;;;;;;;12.38;3.60;;;;;;;15.30;45.55;93540.25;4941119;28;20063;-81
2023/10/21 04:08:04;;;;;;;10.63;4.07;;;;;;;15.23;44.62;93545.47;4968343;28;20030;-80
2023/10/21 04:11:30;;;;;;;11.77;3.92;;;;;;;14.90;45.65;93537.03;4942759;28;20049;-78
2023/10/21 04:14:36;;;;;;;7.90;3.10;;;;;;;14.94;45.28;93565.47;4949348;28;20042;-80
2023/10/21 04:17:37;;;;;;;5.32;2.90;;;;;;;14.90;45.53;93521.75;4958558;28;20145;-80
2023/10/21 04:20:38;;;;;;;11.88;5.05;;;;;;;14.86;45.21;93520.13;4947372;28;20516;-80
2023/10/21 04:23:38;;;;;;;7.32;2.97;;;;;;;14.91;44.94;93507.22;4964785;28;20434;-81
2023/10/21 04:26:48;;;;;;;10.55;3.45;;;;;;;14.68;44.72;93463.47;4963827;28;20038;-80
2023/10/21 04:29:52;;;;;;;12.57;4.13;;;;;;;15.00;44.81;93517.78;4944014;28;20600;-80
2023/10/21 04:32:52;;;;;;;7.90;3.30;;;;;;;15.43;44.43;93560.47;4944192;28;20053;-81
2023/10/21 04:36:20;;;;;;;6.75;2.85;;;;;;;15.25;45.06;93532.53;4959704;28;20046;-80
2023/10/21 04:39:33;;;;;;;11.63;3.00;;;;;;;15.27;44.60;93548.22;4946178;28;20050;-79
2023/10/21 04:42:39;;;;;;;13.63;3.72;;;;;;;15.09;44.53;93512.22;4946778;28;20134;-78
2023/10/21 04:45:45;;;;;;;8.57;3.38;;;;;;;15.35;44.47;93569.47;4945950;28;20042;-81
2023/10/21 04:48:39;;;;;;;13.55;3.70;;;;;;;15.17;44.09;93493.28;4969458;28;20031;-81
2023/10/21 04:51:41;;;;;;;6.50;3.25;;;;;;;15.39;44.58;93574.94;4935067;28;20497;-80
2023/10/21 04:54:36;;;;;;;10.52;3.13;;;;;;;14.94;45.50;93543.25;4961593;28;20038;-80
2023/10/21 04:57:47;;;;;;;8.48;3.85;;;;;;;15.40;44.79;93589.88;4924281;28;20054;-79
2023/10/21 05:00:44;;;;;;;8.75;3.28;;;;;;;15.34;44.78;93599.31;4948349;28;20039;-79
2023/10/21 05:03:59;;;;;;;26.00;3.75;;;;;;;15.32;45.26;93598.88;4962714;28;20038;-80
2023/10/21 05:07:30;;;;;;;8.80;2.78;;;;;;;15.44;44.51;93626.38;4966612;28;20635;-79
2023/10/21 05:10:46;;;;;;;8.40;3.40;;;;;;;15.43;45.41;93626.69;4945018;28;20035;-80
2023/10/21 05:13:55;;;;;;;10.35;4.55;;;;;;;15.32;45.76;93629.13;4938931;28;20123;-80
2023/10/21 05:16:59;;;;;;;8.63;3.53;;;;;;;15.26;45.61;93622.47;4960323;28;20532;-81
2023/10/21 05:20:17;;;;;;;8.35;3.10;;;;;;;15.49;45.51;93638.75;4975910;28;20117;-80
2023/10/21 05:23:06;;;;;;;8.05;3.70;;;;;;;15.22;45.45;93621.59;4945116;28;20512;-80
2023/10/21 05:25:59;;;;;;;11.90;3.72;;;;;;;14.82;46.32;93589.63;4986745;28;20062;-80
2023/10/21 05:28:45;;;;;;;9.63;4.25;;;;;;;15.10;46.24;93621.72;4963056;28;20114;-81
2023/10/21 05:31:49;;;;;;;13.55;3.63;;;;;;;15.48;45.99;93649.81;4968293;28;20042;-79
2023/10/21 05:34:56;;;;;;;9.25;3.22;;;;;;;15.42;45.99;93652.72;4962233;28;20077;-79
2023/10/21 05:37:56;;;;;;;7.38;4.00;;;;;;;15.26;46.03;93594.88;4971237;28;20053;-79
2023/10/21 05:40:47;;;;;;;;;;;;;;;15.64;46.03;93656.72;4964004;28;20038;-78
2023/10/21 05:43:51;;;;;;;7.10;2.90;;;;;;;15.40;46.72;93659.56;4986055;28;19913;-78
2023/10/21 05:46:41;;;;;;;15.95;3.78;;;;;;;15.28;46.23;93638.97;4945028;28;20463;-78
2023/10/21 05:49:45;;;;;;;13.90;3.67;;;;;;;15.50;46.69;93647.56;4947306;28;20043;-79
2023/10/21 05:52:26;;;;;;;8.48;4.20;;;;;;;14.96;46.75;93568.56;4941524;28;20043;-79
2023/10/21 05:55:12;;;;;;;9.85;3.47;;;;;;;15.73;46.95;93665.34;4945936;28;20043;-80
2023/10/21 05:58:00;;;;;;;10.40;3.70;;;;;;;15.69;46.43;93637.69;4970828;28;20449;-80
2023/10/21 06:00:48;;;;;;;12.02;3.70;;;;;;;16.01;45.61;93675.13;4964072;28;20448;-79
2023/10/21 06:03:44;;;;;;;8.48;3.63;;;;;;;16.20;45.16;93691.28;4961436;28;20042;-79
2023/10/21 06:06:32;;;;;;;8.57;3.85;;;;;;;15.73;45.96;93610.94;4962998;28;20700;-79
2023/10/21 06:09:53;;;;;;;11.07;3.40;;;;;;;16.08;45.99;93665.34;4965186;28;20049;-78
2023/10/21 06:12:55;;;;;;;10.90;3.65;;;;;;;15.96;46.06;93614.50;4967892;28;20038;-79
2023/10/21 06:15:58;;;;;;;12.63;3.95;;;;;;;16.54;45.16;93662.84;4957970;28;20054;-81
2023/10/21 06:19:12;;;;;;;11.00;4.57;;;;;;;16.80;44.75;93697.91;4974999;28;20035;-81
2023/10/21 06:21:53;;;;;;;11.90;3.97;;;;;;;16.91;44.93;93690.84;4960194;28;20073;-80
2023/10/21 06:24:33;;;;;;;11.15;3.95;;;;;;;16.63;45.00;93634.66;4948762;28;20037;-81
2023/10/21 06:27:40;;;;;;;13.70;4.55;;;;;;;16.92;44.00;93667.41;4961472;28;20051;-79
2023/10/21 06:30:40;;;;;;;12.10;4.13;;;;;;;17.00;44.08;93696.75;4966805;28;20132;-79
2023/10/21 06:33:49;;;;;;;10.65;4.28;;;;;;;17.09;44.47;93665.06;4978019;28;20540;-81
2023/10/21 06:36:45;;;;;;;9.98;3.30;;;;;;;16.94;44.04;93649.81;4970249;28;20065;-79
2023/10/21 06:39:47;;;;;;;11.15;4.03;;;;;;;16.51;44.90;93561.56;4972743;28;20042;-81
2023/10/21 06:42:27;;;;;;;8.27;3.60;;;;;;;16.62;44.28;93544.50;4958734;28;20045;-81
2023/10/21 06:46:07;;;;;;;14.45;3.47;;;;;;;16.93;44.71;93588.38;4954432;28;20077;-79
2023/10/21 06:49:37;;;;;;;8.02;3.83;;;;;;;17.56;44.08;93698.91;4928075;28;20825;-77
2023/10/21 06:52:17;;;;;;;10.30;3.08;;;;;;;17.04;44.47;93606.25;4986444;28;20026;-82
2023/10/21 06:55:24;;;;;;;16.48;4.40;;;;;;;16.67;44.77;93532.72;4949417;28;20051;-81
2023/10/21 06:58:40;;;;;;;8.57;3.45;;;;;;;17.94;43.78;93698.75;4939548;28;20226;-79
2023/10/21 07:01:37;;;;;;;15.80;3.58;;;;;;;17.78;43.41;93659.69;4959272;28;20505;-81
2023/10/21 07:04:40;;;;;;;13.20;4.38;;;;;;;18.00;43.29;93691.16;4972412;28;20053;-81
2023/10/21 07:07:53;;;;;;;10.50;3.80;;;;;;;17.81;42.70;93662.41;4967073;28;20122;-81
2023/10/21 07:11:00;;;;;;;18.73;4.30;;;;;;;17.98;43.37;93678.09;4958413;28;20717;-79
2023/10/21 07:14:42;;;;;;;12.43;4.00;;;;;;;17.96;43.30;93685.75;4971771;28;21075;-80
2023/10/21 07:17:49;;;;;;;10.65;3.60;;;;;;;17.12;42.30;93562.22;4958794;28;21336;-82
2023/10/21 07:20:57;;;;;;;11.10;3.97;;;;;;;17.48;43.17;93651.53;4944431;28;20057;-76
2023/10/21 07:24:07;;;;;;;18.50;4.25;;;;;;;17.50;42.70;93611.63;4958433;28;20047;-80
2023/10/21 07:26:52;;;;;;;13.05;4.07;;;;;;;17.82;42.38;93671.25;4959048;28;20041;-78
2023/10/21 07:29:52;;;;;;;17.08;3.67;;;;;;;17.92;42.65;93673.34;4960175;28;20140;-77
2023/10/21 07:32:42;;;;;;;17.55;4.70;;;;;;;18.11;41.75;93686.72;4947002;28;20041;-78
2023/10/21 07:35:45;;;;;;;6.60;3.67;;;;;;;17.33;43.17;93551.06;4955113;28;20050;-80
2023/10/21 07:38:32;;;;;;;11.73;4.72;;;;;;;17.43;41.48;93552.38;4942128;28;20050;-80
2023/10/21 07:41:25;;;;;;;12.45;3.70;;;;;;;18.19;42.47;93699.13;4942359;28;20050;-80
2023/10/21 07:44:15;;;;;;;11.25;3.88;;;;;;;18.19;41.53;93684.88;4955931;28;20042;-80
2023/10/21 07:47:16;;;;;;;11.30;4.20;;;;;;;18.04;41.03;93682.00;4948431;28;20034;-79
2023/10/21 07:50:05;;;;;;;8.43;3.53;;;;;;;17.74;41.91;93667.72;4942645;28;20037;-82
2023/10/21 07:52:50;;;;;;;14.80;4.90;;;;;;;17.83;42.15;93681.69;4955569;28;20039;-80
2023/10/21 07:56:06;;;;;;;9.68;3.97;;;;;;;18.10;43.15;93685.16;4929548;28;20088;-81
2023/10/21 07:59:13;;;;;;;12.93;5.22;;;;;;;18.19;41.74;93666.03;4942932;28;20443;-79
2023/10/21 08:01:52;;;;;;;19.80;7.13;;;;;;;18.23;41.93;93685.75;4951263;28;20122;-77
2023/10/21 08:05:18;;;;;;;14.27;5.47;;;;;;;18.17;41.24;93627.97;4973609;28;20035;-75
2023/10/21 08:08:03;;;;;;;12.57;5.32;;;;;;;18.27;41.29;93673.88;4949014;28;20122;-79
2023/10/21 08:10:50;;;;;;;17.17;5.55;;;;;;;18.31;41.69;93680.09;4956805;28;20054;-79
2023/10/21 08:13:31;;;;;;;14.73;5.20;;;;;;;18.63;41.70;93675.09;4935363;28;20053;-81
2023/10/21 08:16:30;;;;;;;15.23;5.03;;;;;;;18.48;41.75;93657.97;4925723;28;20090;-81
2023/10/21 08:19:40;;;;;;;13.45;5.18;;;;;;;18.24;41.63;93638.81;4976806;28;20047;-81
2023/10/21 08:22:35;;;;;;;12.48;4.78;;;;;;;18.52;41.34;93674.19;4947257;28;20054;-79
2023/10/21 08:25:42;;;;;;;20.15;5.25;;;;;;;18.54;41.84;93681.88;4941399;28;20058;-80
2023/10/21 08:28:49;;;;;;;11.23;5.03;;;;;;;18.61;40.98;93677.38;4955219;28;20274;-80
2023/10/21 08:31:57;;;;;;;13.00;5.38;;;;;;;18.70;41.36;93644.78;4978169;28;20052;-80
2023/10/21 08:35:04;;;;;;;14.88;4.93;;;;;;;18.96;42.43;93660.09;4960263;28;20050;-79
2023/10/21 08:38:05;;;;;;;21.65;5.57;;;;;;;18.85;40.56;93647.28;4959391;28;20054;-80
2023/10/21 08:40:53;;;;;;;14.73;5.50;;;;;;;18.88;40.77;93676.19;4972482;28;20026;-79
2023/10/21 08:43:32;;;;;;;20.75;4.95;;;;;;;18.33;40.21;93570.09;4981322;28;20137;-81
2023/10/21 08:46:26;;;;;;;15.43;4.35;;;;;;;18.98;40.16;93641.63;4979948;28;20153;-79
2023/10/21 08:49:37;;;;;;;13.48;4.25;;;;;;;19.13;39.42;93637.94;4971328;28;20586;-79
2023/10/21 08:52:43;;;;;;;10.30;4.00;;;;;;;18.70;39.21;93580.94;4965268;28;20046;-80
2023/10/21 08:55:44;;;;;;;13.05;3.55;;;;;;;19.58;39.71;93659.16;4949082;28;20039;-79
2023/10/21 08:58:56;;;;;;;14.02;3.92;;;;;;;18.98;39.09;93582.34;4950380;28;20072;-77
2023/10/21 09:02:25;;;;;;;16.58;5.07;;;;;;;19.40;38.30;93625.88;4937145;28;20062;-77
2023/10/21 09:05:40;;;;;;;16.65;4.22;;;;;;;19.85;36.71;93645.50;4958736;28;20412;-79
2023/10/21 09:08:40;;;;;;;12.93;3.33;;;;;;;19.80;36.08;93586.50;4962711;28;20046;-76
2023/10/21 09:11:38;;;;;;;22.80;3.97;;;;;;;19.89;31.90;93592.31;4959933;28;20052;-78
2023/10/21 09:14:31;;;;;;;12.00;3.65;;;;;;;20.46;34.49;93642.78;4970586;28;20044;-77
2023/10/21 09:17:52;;;;;;;17.33;4.40;;;;;;;20.70;33.63;93621.66;4951144;28;20320;-77
2023/10/21 09:20:37;;;;;;;12.40;2.38;;;;;;;20.82;32.52;93637.53;4946299;28;20062;-78
2023/10/21 09:23:27;;;;;;;11.43;2.10;;;;;;;20.95;29.22;93625.22;4969304;28;20547;-78
2023/10/21 09:26:30;;;;;;;12.10;1.92;;;;;;;21.10;29.16;93631.44;4971501;28;20040;-79
2023/10/21 09:29:35;;;;;;;13.60;3.05;;;;;;;21.32;29.74;93628.38;4971580;28;20051;-78
2023/10/21 09:32:33;;;;;;;11.70;2.67;;;;;;;21.43;28.89;93637.28;4963689;28;20038;-78
2023/10/21 09:35:41;;;;;;;16.42;2.50;;;;;;;21.76;28.44;93640.78;4961974;28;20040;-79
2023/10/21 09:38:51;;;;;;;18.63;3.35;;;;;;;21.85;28.63;93597.88;4962302;28;20053;-79
2023/10/21 09:42:04;;;;;;;12.13;2.60;;;;;;;21.88;27.61;93608.69;4972277;28;20041;-80
2023/10/21 09:44:44;;;;;;;16.13;3.28;;;;;;;22.10;27.08;93581.53;4961336;28;20069;-81
2023/10/21 09:47:45;;;;;;;19.02;3.20;;;;;;;22.18;28.29;93591.97;4942119;28;20056;-78
2023/10/21 09:50:39;;;;;;;15.82;2.47;;;;;;;22.15;27.24;93575.72;4972862;28;20126;-79
2023/10/21 09:53:57;;;;;;;15.85;3.15;;;;;;;22.26;26.98;93587.34;4968280;28;20054;-80
2023/10/21 09:56:44;;;;;;;23.20;2.85;;;;;;;22.42;26.05;93590.38;4961328;28;20033;-80
2023/10/21 09:59:57;;;;;;;17.02;3.20;;;;;;;22.48;26.39;93577.19;4983103;28;20030;-80
2023/10/21 10:02:59;;;;;;;13.65;2.85;;;;;;;22.42;26.12;93546.25;4964777;28;20046;-79
2023/10/21 10:05:49;;;;;;;15.07;3.15;;;;;;;21.73;25.48;93449.41;4963581;28;20054;-80
2023/10/21 10:09:12;;;;;;;17.55;3.05;;;;;;;22.52;25.41;93550.84;4962488;28;20636;-80
2023/10/21 10:12:47;;;;;;;85.47;15.52;;;;;;;22.64;24.90;93558.50;4972217;28;20069;-80
2023/10/21 10:15:33;;;;;;;22.77;4.25;;;;;;;22.70;25.09;93556.94;4970962;28;20058;-79
2023/10/21 10:18:33;;;;;;;21.30;3.63;;;;;;;22.58;25.46;93516.75;4936721;28;20093;-78
2023/10/21 10:21:51;;;;;;;18.87;2.43;;;;;;;22.88;26.53;93524.34;4961968;28;20478;-79
2023/10/21 10:24:50;;;;;;;17.33;2.88;;;;;;;22.93;26.00;93526.59;4948778;28;20046;-79
2023/10/21 10:28:17;;;;;;;10.88;2.42;;;;;;;22.96;25.69;93498.72;4939414;28;20475;-79
2023/10/21 10:31:15;;;;;;;19.38;4.88;;;;;;;22.85;26.01;93498.75;4958187;28;20043;-76
2023/10/21 10:34:30;;;;;;;18.08;3.58;;;;;;;22.93;25.39;93526.59;4951114;28;20042;-77
2023/10/21 10:37:40;;;;;;;17.30;2.55;;;;;;;22.93;26.03;93523.91;4943139;28;20148;-79
2023/10/21 10:41:00;;;;;;;19.88;4.38;;;;;;;22.97;26.40;93527.38;4957274;28;20053;-79
2023/10/21 10:44:01;;;;;;;15.77;2.30;;;;;;;22.92;26.01;93504.16;4901596;28;20498;-80
2023/10/21 10:47:20;;;;;;;13.13;3.47;;;;;;;22.94;26.33;93523.50;4935008;28;20057;-77
2023/10/21 10:50:23;;;;;;;9.60;2.58;;;;;;;22.98;26.55;93520.78;4953200;28;20075;-78
2023/10/21 10:53:52;;;;;;;18.35;2.42;;;;;;;22.91;26.12;93494.50;4942217;28;20482;-79
2023/10/21 10:57:06;;;;;;;25.85;3.38;;;;;;;22.86;25.37;93488.69;4928560;28;20039;-76
2023/10/21 11:00:10;;;;;;;10.65;2.30;;;;;;;23.06;25.35;93493.22;4922444;28;20053;-77
2023/10/21 11:03:42;;;;;;;13.65;3.45;;;;;;;23.08;26.06;93530.78;4965586;28;20392;-77
2023/10/21 11:07:05;;;;;;;17.90;2.83;;;;;;;23.08;25.73;93512.56;4903730;28;20034;-78
2023/10/21 11:13:41;;;;;;;12.70;2.92;;;;;;;22.92;25.65;93482.47;4950543;28;20586;-78
2023/10/21 11:24:02;;;;;;;12.18;2.85;;;;;;;23.12;26.22;93513.28;4939037;28;20343;-78
2023/10/21 11:27:19;;;;;;;24.25;3.55;;;;;;;22.93;26.05;93473.16;4948504;28;20047;-78
2023/10/21 11:30:37;;;;;;;9.13;2.47;;;;;;;22.99;27.37;93508.75;4941638;28;20198;-79
2023/10/21 11:33:55;;;;;;;10.00;3.45;;;;;;;23.24;25.44;93508.56;4950735;28;20038;-77
2023/10/21 11:37:05;;;;;;;15.32;2.35;;;;;;;23.36;25.34;93527.09;4940639;28;20455;-78
2023/10/21 11:40:21;;;;;;;18.48;2.20;;;;;;;23.24;25.92;93484.91;4956040;28;20043;-80
2023/10/21 11:43:42;;;;;;;14.98;2.65;;;;;;;23.35;25.65;93488.31;4943386;28;20070;-78
2023/10/21 11:46:48;;;;;;;14.65;2.45;;;;;;;23.41;25.71;93503.00;4938631;28;20035;-78
2023/10/21 11:49:48;;;;;;;20.38;2.78;;;;;;;23.40;25.64;93498.75;4893571;28;20510;-79
2023/10/21 11:53:21;;;;;;;19.02;2.78;;;;;;;23.49;26.53;93492.88;4951125;28;20035;-77
2023/10/21 12:23:10;;;;;;;11.45;2.33;;;;;;;23.78;24.94;93510.41;4952558;28;20104;-78
2023/10/21 12:42:45;;;;;;;13.35;2.40;;;;;;;23.57;24.19;93467.97;4977968;28;20122;-77
2023/10/21 12:45:59;;;;;;;20.58;3.50;;;;;;;23.94;24.80;93521.50;4922608;28;20045;-79
2023/10/21 12:49:21;;;;;;;12.95;2.22;;;;;;;23.83;25.11;93506.47;4968729;28;20034;-75
2023/10/21 12:52:37;;;;;;;9.85;2.42;;;;;;;24.00;25.16;93517.16;4958048;28;20061;-76
2023/10/21 12:55:49;;;;;;;13.45;2.08;;;;;;;24.14;24.41;93531.78;4935667;28;20029;-77
2023/10/21 12:59:08;;;;;;;14.20;2.55;;;;;;;24.25;24.65;93526.97;4933803;28;20053;-77
2023/10/21 13:05:52;;;;;;;19.17;4.75;;;;;;;23.27;25.63;93410.84;4916277;28;20169;-79
2023/10/21 13:09:00;;;;;;;16.13;3.30;;;;;;;24.16;25.10;93530.19;4978092;28;20018;-78
2023/10/21 13:11:50;;;;;;;9.48;2.83;;;;;;;24.23;25.27;93551.84;4932952;28;20053;-80
2023/10/21 13:14:20;;;;;;;13.38;2.50;;;;;;;24.35;25.68;93569.56;4958497;28;20764;-78
2023/10/21 13:16:47;;;;;;;15.32;3.10;;;;;;;24.27;25.15;93544.44;4959381;28;20052;-76
2023/10/21 13:19:13;;;;;;;12.75;2.92;;;;;;;24.35;24.29;93534.25;4962410;28;20047;-77
2023/10/21 13:21:39;;;;;;;10.30;4.07;;;;;;;24.49;24.65;93539.53;4956857;28;20042;-78
2023/10/21 13:24:06;;;;;;;10.55;2.85;;;;;;;24.51;24.50;93556.19;4946986;28;20031;-77
2023/10/21 13:26:32;;;;;;;5.47;1.85;;;;;;;24.58;23.70;93561.53;4944097;28;20431;-78
2023/10/21 13:28:59;;;;;;;10.77;2.25;;;;;;;24.40;24.59;93566.41;4961272;28;20141;-77
2023/10/21 13:31:24;;;;;;;15.23;2.03;;;;;;;24.55;24.73;93599.63;4962877;28;20432;-79
2023/10/21 13:33:50;;;;;;;11.50;2.30;;;;;;;24.58;24.50;93561.53;4962935;28;20791;-77
2023/10/21 13:36:15;;;;;;;12.70;2.55;;;;;;;24.67;24.32;93572.69;4961516;28;20126;-79
2023/10/21 13:38:40;;;;;;;11.15;2.53;;;;;;;24.70;24.41;93563.69;4961524;28;20579;-77
2023/10/21 13:41:06;;;;;;;16.15;3.40;;;;;;;24.29;24.93;93550.25;4960849;28;20046;-78
2023/10/21 13:43:32;;;;;;;7.20;2.28;;;;;;;24.44;24.93;93572.59;4939019;28;20195;-77
2023/10/21 13:46:01;;;;;;;7.65;2.03;;;;;;;23.63;25.08;93476.44;4941744;28;20055;-77
2023/10/21 13:48:28;;;;;;;13.10;2.53;;;;;;;24.41;24.65;93567.94;4942572;28;20499;-77
2023/10/21 13:50:53;;;;;;;19.35;2.22;;;;;;;24.36;24.14;93569.16;4941153;28;20035;-78
2023/10/21 13:53:24;;;;;;;8.73;1.70;;;;;;;24.29;24.61;93587.50;4941434;28;20731;-77
2023/10/21 13:55:50;;;;;;;13.52;2.30;;;;;;;24.34;25.37;93579.69;4942394;28;20062;-76
2023/10/21 13:58:15;;;;;;;11.35;2.03;;;;;;;24.20;24.13;93571.66;4941798;28;20181;-77
2023/10/21 14:00:41;;;;;;;14.95;3.38;;;;;;;24.14;24.12;93580.69;4941285;28;20038;-77
2023/10/21 14:03:20;;;;;;;10.65;3.67;;;;;;;24.35;25.63;93585.88;4943956;28;20030;-78
2023/10/21 14:05:48;;;;;;;16.58;3.10;;;;;;;24.20;24.95;93565.50;4948133;28;20486;-77
2023/10/21 14:08:24;;;;;;;12.30;2.70;;;;;;;24.23;25.02;93564.66;4939062;28;20039;-77
2023/10/21 14:10:51;;;;;;;12.77;2.67;;;;;;;24.09;24.73;93557.44;4943678;28;20373;-77
2023/10/21 14:13:28;;;;;;;15.18;2.85;;;;;;;24.32;25.65;93586.69;4941616;28;20066;-76
2023/10/21 14:15:54;;;;;;;16.67;3.30;;;;;;;24.28;25.10;93566.94;4941690;28;20051;-77
2023/10/21 14:18:21;;;;;;;10.52;2.38;;;;;;;24.09;25.02;93579.16;4939828;28;20118;-76
2023/10/21 14:20:51;;;;;;;8.75;2.30;;;;;;;24.14;26.32;93586.13;4942549;28;20425;-77
2023/10/21 14:23:19;;;;;;;12.40;2.33;;;;;;;24.20;25.45;93598.09;4944649;28;20027;-77
2023/10/21 14:25:49;;;;;;;9.52;2.83;;;;;;;24.11;25.59;93587.69;4940940;28;20043;-76
2023/10/21 14:28:16;;;;;;;11.57;3.03;;;;;;;23.70;25.67;93590.41;4942907;28;20528;-77
2023/10/21 14:30:46;;;;;;;13.80;2.33;;;;;;;23.83;25.96;93588.72;4940218;28;21238;-77
2023/10/21 14:33:17;;;;;;;10.10;2.03;;;;;;;23.71;26.58;93578.34;4945026;28;20023;-79
2023/10/21 14:35:44;;;;;;;14.38;2.40;;;;;;;23.95;26.82;93601.03;4940968;28;20097;-77
2023/10/21 14:38:13;;;;;;;12.30;2.30;;;;;;;23.76;25.98;93599.63;4941006;28;20113;-76
2023/10/21 14:40:40;;;;;;;15.30;2.17;;;;;;;23.44;26.51;93583.59;4940335;28;20421;-77
2023/10/21 14:43:08;;;;;;;12.30;2.50;;;;;;;23.54;26.52;93584.72;4958193;28;20631;-78
2023/10/21 14:45:34;;;;;;;13.73;2.25;;;;;;;23.48;26.79;93578.13;4951603;28;20728;-76
2023/10/21 14:48:01;;;;;;;8.45;2.83;;;;;;;23.58;26.66;93566.44;4961772;28;20658;-76
2023/10/21 14:50:29;;;;;;;12.88;2.90;;;;;;;23.83;26.41;93594.16;4962229;28;20026;-76